OIKQ 
Dayrestan Airport
Iran 
ICAOStatus
OIKQOperational
LatitudeLongitude
26° 45' 16" N55° 54' 8" E
26.75460155.902401
Local Time (DST+5)UTC (GMT+4)
04-24-2014 11:11 pm04-24-2014 18:41
Sunrise-SunsetLocalUTC
Begin Civil Twilight05:48 am01:18
Sunrise06:12 am01:42
Sunset07:16 pm14:46
End Civil Twilight07:40 pm15:10

Current Weather

METARObservedFlight Conditions

OIKQ 241800Z 22014KT 5000 HZ FEW030 28/21 Q1007

Thu, Apr 24, 2014 @ 18:00 UTC(Z)

(41 Minutes ago)

MVFR

(Marginal Visual Flight Rules)

WindVisibilityCloudsConditions
220° at 14 knots (26 kph)
5000 meters
  • Few at 3,000' AGL
  • Haze
TemperaturesReadingsPrecipitation
Current Temp28°C (82°F)
Dewpoint21°C (70°F)
Heat Index30°C (86°F)
Humidity66%
Altimeter29.73"Hg
Sea Level Pressure1007mb
Field Elevation39.37'
None Recorded

Additional weather within a 92.6km radius of OIKQ

Location METAR
OIKB

69.8km N (042°)

41 minutes ago
VFR VFR    MVFR MVFR    IFR IFR    LIFR LIFR    Unknown Unknown

Previous 24 hour Weather Graphs

  Loading...

CheckWX.com is intended as a tool to help pilots better visualize weather data.   It is not intended as a substitute for an official weather briefing obtained from a Flight Service Station.
CheckWX.com does not meet the FAA requirements for an official pre-flight weather briefing.   Therefore, it's important that pilots still call and obtain an official FSS pre-flight weather briefing.